createdAt,value
2017-04-25T00:00:12.842Z,36.88
2017-04-25T00:01:10.026Z,29.60
2017-04-25T00:02:07.211Z,34.42
2017-04-25T00:03:04.418Z,33.33
2017-04-25T00:04:01.606Z,31.90
2017-04-25T00:04:58.803Z,36.63
2017-04-25T00:05:55.998Z,31.82
2017-04-25T00:06:53.183Z,33.25
2017-04-25T00:07:50.391Z,32.40
2017-04-25T00:09:50.110Z,35.15
2017-04-25T00:10:47.295Z,32.93
2017-04-25T00:11:44.486Z,35.37
2017-04-25T00:12:41.699Z,33.95
2017-04-25T00:13:38.899Z,32.85
2017-04-25T00:14:36.086Z,34.85
2017-04-25T00:15:33.274Z,33.85
2017-04-25T00:16:30.466Z,29.28
2017-04-25T00:17:27.654Z,35.07
2017-04-25T00:18:24.866Z,36.20
2017-04-25T00:19:22.060Z,34.45
2017-04-25T00:20:19.255Z,40.23
2017-04-25T00:21:16.454Z,33.28
2017-04-25T00:22:13.639Z,25.90
2017-04-25T00:23:10.875Z,24.88
2017-04-25T00:24:08.058Z,22.92
2017-04-25T00:25:05.251Z,20.75
2017-04-25T00:26:02.442Z,21.38
2017-04-25T00:26:59.646Z,18.28
2017-04-25T00:27:56.865Z,20.90
2017-04-25T00:28:54.050Z,18.07
2017-04-25T00:29:51.235Z,18.65
2017-04-25T00:30:54.343Z,18.15
2017-04-25T00:31:51.533Z,16.62
2017-04-25T00:32:48.739Z,18.40
2017-04-25T00:33:45.935Z,19.30
2017-04-25T00:34:43.118Z,17.45
2017-04-25T00:35:40.294Z,14.95
2017-04-25T00:36:37.491Z,16.23
2017-04-25T00:37:34.670Z,17.47
2017-04-25T00:38:31.873Z,16.72
2017-04-25T00:39:29.057Z,18.38
2017-04-25T00:40:26.278Z,15.90
2017-04-25T00:41:23.469Z,15.95
2017-04-25T00:42:20.654Z,15.28
2017-04-25T00:43:17.866Z,18.88
2017-04-25T00:44:15.050Z,13.98
2017-04-25T00:45:12.234Z,15.17
2017-04-25T00:46:09.433Z,16.78
2017-04-25T00:47:07.435Z,16.50
2017-04-25T00:48:04.690Z,13.03
2017-04-25T00:49:01.897Z,12.83
2017-04-25T00:49:59.075Z,14.60
2017-04-25T00:50:56.257Z,13.47
2017-04-25T00:51:53.450Z,13.90
2017-04-25T00:52:50.638Z,15.45
2017-04-25T00:53:47.839Z,13.50
2017-04-25T00:54:45.034Z,14.47
2017-04-25T00:55:42.217Z,14.20
2017-04-25T00:56:39.406Z,13.72
2017-04-25T00:57:36.586Z,14.25
2017-04-25T00:58:33.808Z,12.43
2017-04-25T00:59:31.014Z,12.70
2017-04-25T01:00:28.214Z,11.67
2017-04-25T01:01:25.405Z,15.88
2017-04-25T01:02:22.586Z,9.48
2017-04-25T01:03:19.770Z,12.85
2017-04-25T01:04:17.002Z,13.97
2017-04-25T01:05:14.194Z,10.17
2017-04-25T01:06:11.382Z,11.38
2017-04-25T01:07:08.865Z,11.15
2017-04-25T01:08:06.063Z,10.35
2017-04-25T01:09:03.288Z,11.17
2017-04-25T01:10:00.475Z,11.93
2017-04-25T01:10:57.667Z,10.62
2017-04-25T01:11:54.838Z,8.43
2017-04-25T01:12:52.022Z,9.57
2017-04-25T01:13:49.248Z,7.68
2017-04-25T01:14:46.435Z,13.07
2017-04-25T01:15:43.623Z,10.32
2017-04-25T01:16:40.802Z,7.45
2017-04-25T01:17:37.998Z,9.22
2017-04-25T01:18:35.182Z,7.55
2017-04-25T01:19:32.381Z,7.37
2017-04-25T01:20:29.564Z,6.97
2017-04-25T01:21:26.739Z,7.75
2017-04-25T01:22:23.922Z,9.72
2017-04-25T01:23:21.146Z,7.90
2017-04-25T01:24:18.361Z,9.20
2017-04-25T01:25:15.546Z,9.55
2017-04-25T01:26:12.731Z,8.05
2017-04-25T01:27:09.906Z,8.55
2017-04-25T01:28:07.086Z,9.05
2017-04-25T01:29:04.306Z,9.65
2017-04-25T01:30:01.485Z,10.45
2017-04-25T01:30:58.658Z,8.30
2017-04-25T01:31:55.844Z,9.60
2017-04-25T01:32:53.026Z,8.47
2017-04-25T01:33:50.206Z,7.47
2017-04-25T01:34:47.446Z,8.68
2017-04-25T01:35:44.631Z,7.58
2017-04-25T01:36:41.813Z,9.40
2017-04-25T01:37:38.995Z,9.95
2017-04-25T01:38:36.183Z,10.00
2017-04-25T01:39:33.777Z,8.75
2017-04-25T01:40:30.982Z,7.57
2017-04-25T01:41:28.562Z,7.87
2017-04-25T01:42:25.740Z,9.53
2017-04-25T01:43:22.923Z,8.93
2017-04-25T01:44:20.099Z,10.02
2017-04-25T01:45:17.354Z,7.35
2017-04-25T01:46:14.538Z,5.82
2017-04-25T01:47:11.767Z,4.63
2017-04-25T01:48:08.954Z,5.80
2017-04-25T01:49:06.147Z,6.73
2017-04-25T01:50:03.359Z,6.13
2017-04-25T01:51:00.535Z,6.73
2017-04-25T01:51:57.722Z,5.57
2017-04-25T01:52:54.902Z,4.78
2017-04-25T01:53:52.078Z,6.18
2017-04-25T01:54:49.263Z,5.70
2017-04-25T01:55:46.715Z,4.32
2017-04-25T01:56:43.902Z,5.45
2017-04-25T01:57:41.079Z,5.93
2017-04-25T01:58:38.268Z,4.47
2017-04-25T01:59:35.443Z,4.63
2017-04-25T02:00:32.658Z,5.13
2017-04-25T02:01:29.850Z,4.57
2017-04-25T02:02:27.038Z,4.97
2017-04-25T02:03:24.210Z,5.82
2017-04-25T02:04:21.395Z,4.52
2017-04-25T02:05:18.625Z,6.77
2017-04-25T02:06:15.834Z,6.22
2017-04-25T02:07:13.018Z,8.22
2017-04-25T02:08:10.202Z,4.25
2017-04-25T02:09:07.378Z,5.22
2017-04-25T02:10:04.570Z,4.98
2017-04-25T02:11:01.786Z,5.28
2017-04-25T02:11:58.966Z,4.22
2017-04-25T02:12:56.142Z,3.95
2017-04-25T02:13:53.327Z,4.38
2017-04-25T02:14:50.510Z,4.37
2017-04-25T02:15:47.713Z,4.52
2017-04-25T02:16:44.886Z,5.28
2017-04-25T02:17:42.059Z,4.92
2017-04-25T02:18:39.267Z,4.22
2017-04-25T02:19:36.702Z,5.30
2017-04-25T02:20:33.910Z,4.15
2017-04-25T02:21:31.087Z,7.68
2017-04-25T02:22:28.538Z,4.55
2017-04-25T02:23:25.741Z,6.48
2017-04-25T02:24:23.378Z,4.05
2017-04-25T02:25:20.820Z,5.05
2017-04-25T02:26:18.014Z,4.03
2017-04-25T02:27:15.414Z,4.08
2017-04-25T02:28:12.598Z,4.37
2017-04-25T02:29:09.788Z,4.50
2017-04-25T02:30:07.277Z,5.02
2017-04-25T02:31:04.498Z,5.37
2017-04-25T02:32:01.714Z,5.70
2017-04-25T02:32:58.902Z,6.68
2017-04-25T02:33:56.088Z,6.17
2017-04-25T02:34:53.276Z,5.90
2017-04-25T02:35:50.477Z,4.35
2017-04-25T02:36:47.657Z,6.32
2017-04-25T02:37:44.831Z,4.47
2017-04-25T02:38:42.005Z,6.62
2017-04-25T02:39:39.182Z,5.77
2017-04-25T02:40:36.378Z,5.10
2017-04-25T02:41:33.573Z,7.52
2017-04-25T02:42:30.759Z,5.20
2017-04-25T02:43:27.937Z,3.88
2017-04-25T02:44:25.163Z,4.90
2017-04-25T02:45:22.346Z,6.18
2017-04-25T02:46:19.542Z,4.50
2017-04-25T02:47:16.721Z,4.35
2017-04-25T02:48:13.895Z,4.87
2017-04-25T02:49:11.078Z,6.25
2017-04-25T02:50:08.549Z,4.83
2017-04-25T02:51:05.750Z,5.68
2017-04-25T02:52:02.938Z,5.52
2017-04-25T02:53:00.118Z,4.55
2017-04-25T02:53:57.294Z,4.30
2017-04-25T02:54:54.484Z,4.65
2017-04-25T02:55:51.686Z,4.48
2017-04-25T02:56:48.864Z,4.68
2017-04-25T02:57:46.054Z,4.60
2017-04-25T02:58:43.243Z,4.75
2017-04-25T02:59:40.493Z,5.22
2017-04-25T03:00:37.703Z,9.65
2017-04-25T03:01:34.969Z,4.90
2017-04-25T03:02:32.137Z,5.20
2017-04-25T03:03:29.322Z,6.68
2017-04-25T03:04:26.498Z,5.08
2017-04-25T03:05:23.683Z,4.47
2017-04-25T03:06:23.715Z,4.97
2017-04-25T03:07:22.191Z,6.10
2017-04-25T03:08:20.911Z,6.63
2017-04-25T03:09:18.100Z,5.82
2017-04-25T03:10:15.277Z,5.93
2017-04-25T03:11:12.478Z,5.75
2017-04-25T03:12:09.654Z,4.77
2017-04-25T03:13:06.829Z,5.33
2017-04-25T03:14:04.277Z,6.30
2017-04-25T03:15:01.507Z,5.95
2017-04-25T03:15:58.738Z,6.65
2017-04-25T03:16:56.019Z,6.88
2017-04-25T03:17:53.263Z,4.83
2017-04-25T03:18:50.504Z,5.45
2017-04-25T03:19:47.747Z,5.57
2017-04-25T03:20:44.944Z,6.42
2017-04-25T03:21:42.138Z,6.28
2017-04-25T03:22:39.330Z,6.32
2017-04-25T03:23:36.518Z,5.15
2017-04-25T03:24:34.035Z,7.10
2017-04-25T03:25:32.286Z,5.70
2017-04-25T03:26:29.478Z,7.50
2017-04-25T03:27:26.650Z,6.72
2017-04-25T03:28:23.835Z,5.45
2017-04-25T03:29:21.018Z,5.95
2017-04-25T03:30:18.704Z,7.13
2017-04-25T03:31:15.882Z,6.25
2017-04-25T03:32:13.746Z,5.55
2017-04-25T03:33:12.326Z,6.73
2017-04-25T03:34:09.513Z,6.82
2017-04-25T03:35:09.879Z,5.70
2017-04-25T03:36:07.054Z,5.98
2017-04-25T03:37:04.253Z,7.17
2017-04-25T03:38:01.427Z,7.48
2017-04-25T03:38:58.607Z,6.68
2017-04-25T03:39:55.794Z,6.30
2017-04-25T03:40:52.970Z,6.65
2017-04-25T03:41:50.171Z,7.95
2017-04-25T03:42:47.347Z,6.43
2017-04-25T03:43:47.251Z,6.00
2017-04-25T03:44:45.049Z,6.77
2017-04-25T03:45:42.225Z,6.28
2017-04-25T03:46:39.434Z,7.30
2017-04-25T03:47:36.615Z,6.75
2017-04-25T03:48:33.790Z,7.95
2017-04-25T03:49:31.029Z,6.03
2017-04-25T03:50:28.266Z,6.45
2017-04-25T03:51:25.506Z,5.53
2017-04-25T03:52:22.689Z,6.13
2017-04-25T03:53:20.887Z,7.47
2017-04-25T03:54:18.066Z,5.42
2017-04-25T03:55:15.465Z,9.05
2017-04-25T03:56:12.641Z,7.07
2017-04-25T03:57:09.861Z,6.73
2017-04-25T03:58:07.049Z,5.27
2017-04-25T03:59:04.225Z,6.85
2017-04-25T04:00:01.926Z,5.75
2017-04-25T04:01:00.794Z,6.58
2017-04-25T04:01:58.254Z,6.63
2017-04-25T04:02:55.444Z,7.08
2017-04-25T04:03:52.646Z,6.78
2017-04-25T04:04:49.822Z,5.82
2017-04-25T04:05:46.990Z,8.90
2017-04-25T04:06:44.153Z,7.37
2017-04-25T04:07:41.376Z,6.68
2017-04-25T04:08:38.550Z,6.13
2017-04-25T04:09:35.756Z,5.90
2017-04-25T04:10:32.929Z,5.40
2017-04-25T04:11:30.110Z,9.32
2017-04-25T04:12:27.282Z,6.02
2017-04-25T04:13:25.210Z,6.00
2017-04-25T04:14:23.196Z,6.68
2017-04-25T04:15:20.366Z,5.90
2017-04-25T04:16:18.922Z,6.97
2017-04-25T04:17:16.093Z,6.80
2017-04-25T04:18:13.288Z,8.37
2017-04-25T04:19:10.462Z,6.32
2017-04-25T04:20:07.630Z,7.05
2017-04-25T04:21:04.810Z,7.32
2017-04-25T04:22:01.986Z,7.62
2017-04-25T04:23:01.667Z,8.72
2017-04-25T04:23:59.572Z,6.67
2017-04-25T04:24:58.687Z,8.17
2017-04-25T04:25:55.863Z,8.38
2017-04-25T04:26:53.035Z,7.78
2017-04-25T04:27:51.246Z,7.42
2017-04-25T04:28:48.431Z,10.57
2017-04-25T04:29:45.616Z,8.65
2017-04-25T04:30:42.793Z,8.00
2017-04-25T04:31:39.967Z,7.88
2017-04-25T04:32:37.139Z,13.83
2017-04-25T04:33:34.350Z,8.38
2017-04-25T04:34:31.769Z,8.93
2017-04-25T04:35:28.942Z,7.78
2017-04-25T04:36:26.110Z,7.87
2017-04-25T04:37:23.287Z,8.40
2017-04-25T04:38:20.482Z,6.92
2017-04-25T04:39:18.583Z,9.27
2017-04-25T04:40:15.767Z,13.70
2017-04-25T04:41:13.617Z,12.72
2017-04-25T04:42:10.806Z,9.70
2017-04-25T04:43:08.002Z,8.07
2017-04-25T04:44:05.191Z,9.48
2017-04-25T04:45:02.373Z,7.40
2017-04-25T04:46:00.132Z,10.43
2017-04-25T04:46:57.298Z,6.78
2017-04-25T04:47:54.510Z,7.42
2017-04-25T04:48:56.260Z,7.27
2017-04-25T04:49:53.446Z,7.28
2017-04-25T04:50:50.618Z,8.70
2017-04-25T04:51:47.805Z,6.45
2017-04-25T04:52:45.807Z,6.03
2017-04-25T04:53:42.990Z,7.82
2017-04-25T04:54:41.417Z,7.37
2017-04-25T04:55:38.590Z,7.48
2017-04-25T04:56:35.776Z,7.53
2017-04-25T04:57:33.219Z,8.50
2017-04-25T04:58:30.427Z,9.82
2017-04-25T04:59:27.606Z,7.48
2017-04-25T05:00:24.790Z,10.93
2017-04-25T05:01:23.221Z,9.33
2017-04-25T05:02:23.429Z,8.28
2017-04-25T05:03:20.619Z,6.62
2017-04-25T05:04:17.820Z,11.18
2017-04-25T05:05:15.005Z,7.73
2017-04-25T05:06:12.183Z,8.17
2017-04-25T05:07:11.270Z,7.62
2017-04-25T05:08:08.467Z,6.27
2017-04-25T05:09:06.115Z,11.75
2017-04-25T05:10:03.311Z,7.40
2017-04-25T05:11:00.502Z,7.37
2017-04-25T05:12:01.226Z,8.20
2017-04-25T05:12:59.666Z,6.25
2017-04-25T05:13:57.135Z,7.08
2017-04-25T05:14:54.485Z,7.93
2017-04-25T05:15:51.682Z,7.53
2017-04-25T05:16:49.258Z,6.03
2017-04-25T05:17:46.539Z,6.85
2017-04-25T05:18:44.047Z,6.18
2017-04-25T05:19:41.236Z,6.53
2017-04-25T05:20:38.431Z,5.88
2017-04-25T05:21:35.610Z,5.65
2017-04-25T05:22:33.052Z,7.07
2017-04-25T05:23:30.490Z,6.38
2017-04-25T05:24:29.749Z,6.48
2017-04-25T05:25:28.466Z,6.57
2017-04-25T05:26:25.654Z,6.88
2017-04-25T05:27:23.250Z,6.58
2017-04-25T05:28:20.458Z,7.08
2017-04-25T05:29:19.186Z,7.08
2017-04-25T05:30:16.426Z,7.37
2017-04-25T05:31:13.610Z,7.15
2017-04-25T05:32:10.797Z,6.38
2017-04-25T05:33:07.981Z,6.53
2017-04-25T05:34:05.186Z,6.25
2017-04-25T05:35:02.367Z,6.80
2017-04-25T05:35:59.647Z,6.88
2017-04-25T05:36:56.839Z,37.57
2017-04-25T05:37:54.022Z,7.38
2017-04-25T05:38:51.225Z,7.53
2017-04-25T05:39:48.405Z,6.55
2017-04-25T05:40:45.587Z,6.78
2017-04-25T05:41:43.095Z,6.97
2017-04-25T05:42:40.275Z,7.53
2017-04-25T05:43:37.488Z,6.70
2017-04-25T05:44:34.682Z,7.42
2017-04-25T05:45:31.874Z,8.00
2017-04-25T05:46:29.059Z,7.78
2017-04-25T05:47:26.248Z,8.03
2017-04-25T05:48:23.454Z,6.30
2017-04-25T05:49:20.643Z,6.47
2017-04-25T05:50:17.825Z,6.90
2017-04-25T05:51:15.002Z,7.93
2017-04-25T05:52:12.585Z,6.38
2017-04-25T05:53:09.762Z,5.90
2017-04-25T05:54:06.968Z,6.98
2017-04-25T05:55:04.146Z,7.50
2017-04-25T05:56:01.325Z,6.20
2017-04-25T05:56:58.506Z,5.97
2017-04-25T05:57:55.715Z,6.12
2017-04-25T05:58:52.914Z,6.52
2017-04-25T05:59:50.098Z,5.97
2017-04-25T06:00:47.338Z,6.67
2017-04-25T06:01:44.514Z,6.37
2017-04-25T06:02:41.705Z,7.15
2017-04-25T06:03:38.920Z,5.58
2017-04-25T06:04:36.107Z,5.73
2017-04-25T06:05:33.286Z,6.57
2017-04-25T06:06:30.504Z,8.70
2017-04-25T06:07:27.693Z,7.97
2017-04-25T06:08:24.898Z,6.67
2017-04-25T06:09:22.092Z,5.87
2017-04-25T06:10:19.278Z,6.03
2017-04-25T06:11:16.460Z,5.88
2017-04-25T06:12:13.650Z,6.05
2017-04-25T06:13:10.838Z,6.12
2017-04-25T06:14:08.056Z,5.35
2017-04-25T06:15:05.242Z,5.97
2017-04-25T06:16:02.422Z,6.57
2017-04-25T06:16:59.617Z,5.97
2017-04-25T06:17:56.801Z,6.25
2017-04-25T06:18:54.001Z,6.83
2017-04-25T06:19:51.179Z,6.53
2017-04-25T06:20:48.366Z,6.17
2017-04-25T06:21:45.567Z,6.63
2017-04-25T06:22:42.746Z,6.23
2017-04-25T06:23:40.267Z,7.17
2017-04-25T06:24:37.458Z,6.63
2017-04-25T06:25:34.634Z,6.77
2017-04-25T06:26:31.823Z,6.53
2017-04-25T06:27:28.994Z,7.42
2017-04-25T06:28:26.170Z,6.87
2017-04-25T06:29:23.374Z,10.38
2017-04-25T06:30:20.554Z,7.82
2017-04-25T06:31:17.730Z,6.15
2017-04-25T06:32:14.926Z,8.32
2017-04-25T06:33:12.115Z,7.18
2017-04-25T06:34:09.290Z,6.98
2017-04-25T06:35:06.482Z,6.87
2017-04-25T06:36:03.658Z,7.27
2017-04-25T06:37:00.834Z,10.23
2017-04-25T06:37:58.010Z,8.72
2017-04-25T06:38:55.208Z,7.20
2017-04-25T06:39:52.407Z,7.47
2017-04-25T06:40:49.591Z,8.33
2017-04-25T06:41:46.774Z,8.35
2017-04-25T06:42:43.963Z,7.68
2017-04-25T06:43:41.486Z,7.93
2017-04-25T06:44:38.987Z,7.48
2017-04-25T06:45:36.175Z,7.55
2017-04-25T06:46:33.354Z,7.22
2017-04-25T06:47:30.532Z,6.30
2017-04-25T06:48:27.718Z,6.70
2017-04-25T06:49:24.908Z,7.25
2017-04-25T06:50:22.122Z,6.65
2017-04-25T06:51:19.299Z,6.97
2017-04-25T06:52:16.478Z,7.17
2017-04-25T06:53:13.666Z,8.08
2017-04-25T06:54:10.854Z,6.98
2017-04-25T06:55:08.362Z,7.58
2017-04-25T06:56:05.550Z,8.93
2017-04-25T06:57:02.731Z,7.23
2017-04-25T06:57:59.911Z,7.35
2017-04-25T06:58:57.086Z,7.33
2017-04-25T06:59:54.275Z,7.37
2017-04-25T07:00:51.570Z,8.83
2017-04-25T07:01:48.742Z,8.38
2017-04-25T07:02:45.930Z,8.70
2017-04-25T07:03:43.712Z,8.37
2017-04-25T07:04:41.447Z,8.03
2017-04-25T07:05:38.626Z,9.25
2017-04-25T07:06:35.804Z,8.47
2017-04-25T07:07:32.974Z,8.25
2017-04-25T07:08:30.154Z,11.98
2017-04-25T07:09:27.352Z,13.45
2017-04-25T07:10:24.535Z,17.12
2017-04-25T07:11:21.722Z,10.50
2017-04-25T07:12:18.915Z,23.98
2017-04-25T07:13:16.110Z,28.80
2017-04-25T07:14:13.286Z,10.57
2017-04-25T07:15:10.485Z,11.98
2017-04-25T07:16:07.682Z,15.12
2017-04-25T07:17:04.870Z,12.90
2017-04-25T07:18:02.054Z,17.68
2017-04-25T07:18:59.230Z,16.22
2017-04-25T07:19:56.522Z,10.52
2017-04-25T07:20:53.707Z,10.68
2017-04-25T07:21:50.885Z,12.72
2017-04-25T07:22:48.085Z,12.70
2017-04-25T07:23:45.295Z,14.77
2017-04-25T07:24:42.501Z,11.00
2017-04-25T07:25:39.682Z,23.27
2017-04-25T07:26:36.886Z,13.72
2017-04-25T07:27:34.062Z,20.48
2017-04-25T07:28:31.260Z,11.98
2017-04-25T07:29:28.442Z,15.13
2017-04-25T07:30:25.643Z,12.55
2017-04-25T07:31:22.830Z,11.43
2017-04-25T07:32:20.014Z,12.73
2017-04-25T07:33:17.181Z,10.58
2017-04-25T07:34:14.371Z,10.45
2017-04-25T07:35:11.550Z,10.68
2017-04-25T07:36:08.727Z,10.12
2017-04-25T07:37:05.902Z,10.47
2017-04-25T07:38:03.086Z,10.40
2017-04-25T07:39:00.274Z,10.77
2017-04-25T07:39:57.448Z,9.92
2017-04-25T07:40:54.658Z,12.07
2017-04-25T07:41:51.860Z,11.53
2017-04-25T07:42:49.047Z,11.93
2017-04-25T07:43:46.217Z,10.48
2017-04-25T07:44:43.395Z,10.65
2017-04-25T07:45:40.574Z,9.72
2017-04-25T07:46:37.749Z,9.20
2017-04-25T07:47:34.931Z,8.98
2017-04-25T07:48:32.206Z,10.65
2017-04-25T07:49:29.393Z,9.50
2017-04-25T07:50:26.577Z,7.72
2017-04-25T07:51:23.771Z,6.87
2017-04-25T07:52:21.037Z,7.55
2017-04-25T07:53:18.202Z,7.68
2017-04-25T07:54:15.411Z,6.70
2017-04-25T07:55:12.863Z,7.02
2017-04-25T07:56:10.042Z,6.83
2017-04-25T07:57:07.231Z,6.63
2017-04-25T07:58:04.411Z,6.72
2017-04-25T07:59:01.607Z,8.82
2017-04-25T07:59:58.786Z,5.90
2017-04-25T08:00:55.989Z,6.50
2017-04-25T08:01:53.719Z,5.55
2017-04-25T08:02:50.914Z,4.97
2017-04-25T08:03:48.086Z,4.37
2017-04-25T08:04:45.513Z,5.63
2017-04-25T08:05:42.677Z,6.50
2017-04-25T08:06:40.842Z,3.33
2017-04-25T08:07:38.008Z,4.77
2017-04-25T08:08:35.181Z,4.20
2017-04-25T08:09:32.607Z,3.98
2017-04-25T08:10:29.810Z,4.07
2017-04-25T08:11:27.005Z,3.47
2017-04-25T08:12:24.173Z,5.12
2017-04-25T08:13:21.352Z,5.72
2017-04-25T08:14:18.523Z,4.83
2017-04-25T08:15:15.714Z,4.57
2017-04-25T08:16:12.917Z,4.35
2017-04-25T08:17:10.094Z,3.30
2017-04-25T08:18:07.262Z,4.08
2017-04-25T08:19:04.432Z,3.45
2017-04-25T08:20:02.034Z,4.32
2017-04-25T08:20:59.206Z,5.02
2017-04-25T08:21:56.385Z,3.60
2017-04-25T08:22:53.559Z,5.68
2017-04-25T08:23:51.250Z,4.35
2017-04-25T08:24:48.666Z,3.62
2017-04-25T08:25:45.854Z,4.58
2017-04-25T08:26:43.069Z,3.97
2017-04-25T08:27:40.278Z,4.62
2017-04-25T08:28:37.762Z,3.87
2017-04-25T08:29:34.946Z,5.42
2017-04-25T08:30:32.122Z,6.70
2017-04-25T08:31:29.306Z,5.88
2017-04-25T08:32:26.520Z,3.82
2017-04-25T08:33:23.710Z,3.70
2017-04-25T08:34:20.896Z,4.18
2017-04-25T08:35:18.078Z,4.17
2017-04-25T08:36:15.258Z,5.17
2017-04-25T08:37:12.457Z,3.63
2017-04-25T08:38:09.636Z,5.42
2017-04-25T08:39:06.850Z,4.63
2017-04-25T08:40:04.034Z,3.22
2017-04-25T08:41:01.233Z,3.83
2017-04-25T08:41:58.438Z,3.78
2017-04-25T08:42:55.614Z,4.45
2017-04-25T08:43:52.802Z,4.65
2017-04-25T08:44:49.978Z,3.65
2017-04-25T08:45:47.150Z,4.93
2017-04-25T08:46:44.358Z,4.33
2017-04-25T08:47:41.533Z,5.48
2017-04-25T08:48:38.698Z,7.35
2017-04-25T08:49:35.862Z,4.08
2017-04-25T08:50:33.027Z,3.45
2017-04-25T08:51:30.207Z,3.88
2017-04-25T08:52:27.374Z,5.28
2017-04-25T08:53:24.543Z,5.85
2017-04-25T08:54:21.724Z,3.60
2017-04-25T08:55:18.899Z,4.40
2017-04-25T08:56:16.071Z,3.85
2017-04-25T08:57:13.270Z,5.45
2017-04-25T08:58:10.442Z,3.95
2017-04-25T08:59:07.653Z,3.85
2017-04-25T09:00:04.823Z,4.10
2017-04-25T09:01:02.004Z,3.83
2017-04-25T09:01:59.530Z,3.70
2017-04-25T09:02:56.743Z,4.13
2017-04-25T09:03:53.927Z,3.85
2017-04-25T09:04:51.107Z,4.57
2017-04-25T09:05:48.291Z,9.28
2017-04-25T09:06:45.498Z,6.17
2017-04-25T09:07:42.699Z,4.54
2017-04-25T09:08:39.911Z,7.13
2017-04-25T09:09:37.111Z,6.21
2017-04-25T09:10:34.290Z,3.86
2017-04-25T09:11:31.467Z,3.66
2017-04-25T09:12:28.645Z,3.46
2017-04-25T09:13:25.826Z,5.96
2017-04-25T09:14:23.014Z,5.98
2017-04-25T09:15:20.194Z,4.55
2017-04-25T09:16:17.383Z,6.37
2017-04-25T09:17:14.550Z,6.55
2017-04-25T09:18:11.725Z,3.82
2017-04-25T09:19:08.902Z,3.57
2017-04-25T09:20:06.115Z,4.07
2017-04-25T09:21:03.291Z,3.72
2017-04-25T09:22:00.462Z,6.32
2017-04-25T09:22:57.678Z,5.32
2017-04-25T09:23:54.904Z,4.53
2017-04-25T09:24:52.087Z,3.37
2017-04-25T09:25:49.262Z,6.50
2017-04-25T09:26:46.449Z,4.53
2017-04-25T09:27:43.659Z,4.53
2017-04-25T09:28:40.843Z,10.63
2017-04-25T09:29:38.340Z,5.17
2017-04-25T09:30:35.518Z,6.38
2017-04-25T09:31:32.706Z,5.55
2017-04-25T09:32:29.894Z,3.78
2017-04-25T09:33:27.074Z,4.40
2017-04-25T09:34:24.247Z,5.17
2017-04-25T09:35:21.414Z,4.33
2017-04-25T09:36:18.585Z,6.10
2017-04-25T09:37:15.755Z,4.27
2017-04-25T09:38:12.995Z,5.40
2017-04-25T09:39:10.202Z,5.85
2017-04-25T09:40:07.986Z,3.67
2017-04-25T09:41:05.157Z,3.77
2017-04-25T09:42:02.334Z,5.10
2017-04-25T09:42:59.526Z,5.15
2017-04-25T09:43:56.706Z,4.80
2017-04-25T09:44:53.879Z,6.83
2017-04-25T09:45:51.041Z,3.75
2017-04-25T09:46:48.219Z,6.12
2017-04-25T09:47:45.859Z,3.93
2017-04-25T09:48:43.068Z,3.90
2017-04-25T09:49:40.246Z,4.57
2017-04-25T09:50:37.423Z,5.03
2017-04-25T09:51:34.623Z,5.87
2017-04-25T09:52:31.804Z,4.05
2017-04-25T09:53:28.998Z,3.72
2017-04-25T09:54:26.191Z,3.77
2017-04-25T09:55:23.395Z,4.75
2017-04-25T09:56:20.562Z,5.42
2017-04-25T09:57:17.739Z,4.05
2017-04-25T09:58:14.915Z,4.48
2017-04-25T09:59:12.094Z,7.05
2017-04-25T10:00:09.287Z,4.02
2017-04-25T10:01:06.475Z,5.97
2017-04-25T10:02:03.646Z,4.00
2017-04-25T10:03:00.817Z,4.35
2017-04-25T10:03:57.986Z,3.58
2017-04-25T10:04:55.187Z,3.58
2017-04-25T10:05:52.382Z,6.25
2017-04-25T10:06:49.576Z,3.95
2017-04-25T10:07:46.859Z,3.92
2017-04-25T10:08:44.055Z,2.97
2017-04-25T10:09:41.243Z,4.73
2017-04-25T10:10:38.468Z,5.57
2017-04-25T10:11:35.650Z,3.68
2017-04-25T10:12:32.831Z,3.80
2017-04-25T10:13:30.011Z,4.48
2017-04-25T10:14:27.183Z,4.22
2017-04-25T10:15:24.362Z,3.72
2017-04-25T10:16:21.543Z,6.60
2017-04-25T10:17:18.710Z,3.82
2017-04-25T10:18:15.873Z,5.88
2017-04-25T10:19:13.100Z,5.18
2017-04-25T10:20:10.361Z,7.13
2017-04-25T10:21:07.620Z,3.90
2017-04-25T10:22:04.823Z,5.13
2017-04-25T10:23:02.006Z,3.73
2017-04-25T10:23:59.210Z,4.30
2017-04-25T10:24:56.391Z,6.12
2017-04-25T10:25:53.566Z,4.03
2017-04-25T10:26:50.966Z,8.87
2017-04-25T10:27:48.140Z,4.05
2017-04-25T10:28:45.333Z,3.55
2017-04-25T10:29:42.497Z,4.98
2017-04-25T10:30:39.665Z,5.05
2017-04-25T10:31:36.838Z,4.02
2017-04-25T10:32:34.015Z,3.82
2017-04-25T10:33:31.192Z,4.52
2017-04-25T10:34:28.397Z,4.18
2017-04-25T10:35:25.566Z,3.55
2017-04-25T10:36:22.734Z,4.40
2017-04-25T10:37:19.914Z,5.98
2017-04-25T10:38:17.093Z,6.08
2017-04-25T10:39:14.302Z,5.60
2017-04-25T10:40:11.917Z,5.40
2017-04-25T10:41:09.090Z,4.63
2017-04-25T10:42:06.271Z,4.92
2017-04-25T10:43:03.454Z,5.25
2017-04-25T10:44:00.653Z,4.78
2017-04-25T10:44:57.839Z,8.02
2017-04-25T10:45:55.020Z,3.97
2017-04-25T10:46:52.194Z,4.53
2017-04-25T10:47:49.367Z,4.80
2017-04-25T10:48:46.562Z,4.57
2017-04-25T10:49:43.734Z,6.55
2017-04-25T10:50:40.911Z,5.18
2017-04-25T10:51:38.086Z,6.70
2017-04-25T10:52:35.264Z,6.28
2017-04-25T10:53:32.433Z,4.28
2017-04-25T10:54:29.598Z,4.50
2017-04-25T10:55:26.790Z,4.20
2017-04-25T10:56:24.023Z,4.55
2017-04-25T10:57:21.199Z,4.22
2017-04-25T10:58:18.374Z,4.32
2017-04-25T10:59:15.578Z,5.62
2017-04-25T11:00:12.759Z,3.90
2017-04-25T11:01:09.947Z,4.03
2017-04-25T11:02:07.122Z,6.27
2017-04-25T11:03:04.302Z,4.17
2017-04-25T11:04:01.484Z,5.13
2017-04-25T11:04:58.902Z,6.78
2017-04-25T11:05:56.082Z,6.02
2017-04-25T11:06:53.261Z,6.27
2017-04-25T11:07:50.433Z,6.07
2017-04-25T11:08:47.639Z,7.05
2017-04-25T11:09:44.835Z,5.55
2017-04-25T11:10:42.042Z,3.78
2017-04-25T11:11:39.218Z,7.23
2017-04-25T11:12:36.614Z,8.05
2017-04-25T11:13:33.788Z,5.42
2017-04-25T11:14:31.002Z,5.70
2017-04-25T11:15:28.167Z,4.47
2017-04-25T11:16:25.339Z,7.88
2017-04-25T11:17:22.523Z,5.60
2017-04-25T11:18:19.708Z,5.70
2017-04-25T11:19:16.907Z,7.45
2017-04-25T11:20:14.087Z,7.30
2017-04-25T11:21:11.263Z,8.02
2017-04-25T11:22:08.446Z,6.37
2017-04-25T11:23:05.612Z,6.10
2017-04-25T11:24:02.821Z,7.48
2017-04-25T11:25:00.018Z,5.88
2017-04-25T11:25:57.199Z,5.67
2017-04-25T11:26:54.359Z,6.37
2017-04-25T11:27:51.558Z,10.32
2017-04-25T11:28:48.734Z,4.25
2017-04-25T11:29:45.934Z,5.60
2017-04-25T11:30:43.118Z,3.78
2017-04-25T11:31:40.294Z,3.70
2017-04-25T11:32:37.474Z,4.90
2017-04-25T11:33:34.677Z,3.80
2017-04-25T11:34:31.907Z,4.27
2017-04-25T11:35:29.096Z,5.77
2017-04-25T11:36:26.287Z,2.93
2017-04-25T11:37:23.511Z,3.35
2017-04-25T11:38:20.714Z,3.23
2017-04-25T11:39:17.897Z,4.02
2017-04-25T11:40:15.082Z,3.53
2017-04-25T11:41:12.338Z,4.18
2017-04-25T11:42:09.640Z,3.33
2017-04-25T11:43:06.835Z,3.23
2017-04-25T11:44:04.038Z,3.48
2017-04-25T11:45:01.246Z,3.85
2017-04-25T11:45:58.430Z,4.35
2017-04-25T11:46:55.654Z,3.37
2017-04-25T11:47:52.888Z,3.77
2017-04-25T11:48:50.072Z,2.87
2017-04-25T11:49:47.288Z,4.17
2017-04-25T11:50:44.468Z,3.75
2017-04-25T11:51:41.638Z,3.22
2017-04-25T11:52:38.818Z,6.83
2017-04-25T11:53:35.993Z,4.08
2017-04-25T11:54:33.431Z,4.13
2017-04-25T11:55:30.606Z,3.85
2017-04-25T11:56:27.787Z,4.55
2017-04-25T11:57:25.050Z,3.12
2017-04-25T11:58:22.226Z,4.97
2017-04-25T11:59:19.401Z,3.40
2017-04-25T12:00:16.581Z,3.32
2017-04-25T12:01:13.755Z,3.58
2017-04-25T12:02:10.923Z,3.05
2017-04-25T12:03:08.101Z,3.12
2017-04-25T12:04:05.266Z,2.88
2017-04-25T12:05:02.747Z,4.35
2017-04-25T12:05:59.923Z,3.27
2017-04-25T12:06:57.103Z,2.97
2017-04-25T12:07:54.270Z,3.35
2017-04-25T12:08:51.445Z,3.95
2017-04-25T12:09:48.614Z,4.70
2017-04-25T12:10:45.788Z,3.32
2017-04-25T12:11:42.957Z,6.85
2017-04-25T12:12:40.122Z,4.33
2017-04-25T12:13:37.299Z,4.77
2017-04-25T12:14:34.470Z,3.22
2017-04-25T12:15:31.666Z,6.37
2017-04-25T12:16:28.854Z,3.97
2017-04-25T12:17:26.034Z,3.80
2017-04-25T12:18:23.217Z,4.05
2017-04-25T12:19:20.395Z,3.08
2017-04-25T12:20:17.907Z,3.08
2017-04-25T12:21:15.110Z,2.87
2017-04-25T12:22:12.285Z,2.88
2017-04-25T12:23:09.462Z,4.17
2017-04-25T12:24:06.671Z,3.20
2017-04-25T12:25:03.842Z,3.22
2017-04-25T12:26:01.006Z,3.40
2017-04-25T12:26:58.199Z,3.33
2017-04-25T12:27:55.366Z,6.37
2017-04-25T12:28:52.543Z,3.77
2017-04-25T12:29:49.730Z,3.33
2017-04-25T12:30:46.923Z,3.60
2017-04-25T12:31:44.102Z,3.10
2017-04-25T12:32:41.291Z,5.83
2017-04-25T12:33:38.535Z,3.40
2017-04-25T12:34:35.694Z,4.47
2017-04-25T12:35:32.866Z,4.13
2017-04-25T12:36:30.045Z,3.25
2017-04-25T12:37:27.210Z,3.40
2017-04-25T12:38:24.378Z,3.67
2017-04-25T12:39:21.550Z,3.55